sensor_id;sensor_type;location;lat;lon;timestamp;temperature;humidity
30304;DHT22;17112;48.636;10.152;2023-11-18T00:01:33;8.30;74.80
30304;DHT22;17112;48.636;10.152;2023-11-18T00:03:59;8.30;74.90
30304;DHT22;17112;48.636;10.152;2023-11-18T00:06:25;8.20;74.80
30304;DHT22;17112;48.636;10.152;2023-11-18T00:08:51;8.20;74.80
30304;DHT22;17112;48.636;10.152;2023-11-18T00:11:17;8.20;74.70
30304;DHT22;17112;48.636;10.152;2023-11-18T00:13:44;8.20;74.90
30304;DHT22;17112;48.636;10.152;2023-11-18T00:16:10;8.10;75.00
30304;DHT22;17112;48.636;10.152;2023-11-18T00:18:41;8.20;75.10
30304;DHT22;17112;48.636;10.152;2023-11-18T00:21:06;8.20;75.30
30304;DHT22;17112;48.636;10.152;2023-11-18T00:23:36;8.20;75.30
30304;DHT22;17112;48.636;10.152;2023-11-18T00:26:01;8.10;75.20
30304;DHT22;17112;48.636;10.152;2023-11-18T00:28:27;8.10;75.20
30304;DHT22;17112;48.636;10.152;2023-11-18T00:30:53;8.10;75.20
30304;DHT22;17112;48.636;10.152;2023-11-18T00:33:19;8.10;75.30
30304;DHT22;17112;48.636;10.152;2023-11-18T00:35:44;8.10;75.30
30304;DHT22;17112;48.636;10.152;2023-11-18T00:38:11;8.10;75.20
30304;DHT22;17112;48.636;10.152;2023-11-18T00:40:37;8.10;75.30
30304;DHT22;17112;48.636;10.152;2023-11-18T00:43:04;8.10;75.30
30304;DHT22;17112;48.636;10.152;2023-11-18T00:45:30;8.10;75.30
30304;DHT22;17112;48.636;10.152;2023-11-18T00:47:55;8.10;75.30
30304;DHT22;17112;48.636;10.152;2023-11-18T00:50:21;8.10;75.40
30304;DHT22;17112;48.636;10.152;2023-11-18T00:52:47;8.10;75.40
30304;DHT22;17112;48.636;10.152;2023-11-18T00:55:14;8.10;75.40
30304;DHT22;17112;48.636;10.152;2023-11-18T00:57:39;8.10;75.30
30304;DHT22;17112;48.636;10.152;2023-11-18T01:00:07;8.00;75.40
30304;DHT22;17112;48.636;10.152;2023-11-18T01:02:33;8.00;75.40
30304;DHT22;17112;48.636;10.152;2023-11-18T01:04:58;8.00;75.40
30304;DHT22;17112;48.636;10.152;2023-11-18T01:07:24;8.00;75.40
30304;DHT22;17112;48.636;10.152;2023-11-18T01:09:50;8.00;75.30
30304;DHT22;17112;48.636;10.152;2023-11-18T01:12:15;7.90;75.30
30304;DHT22;17112;48.636;10.152;2023-11-18T01:14:41;7.90;75.40
30304;DHT22;17112;48.636;10.152;2023-11-18T01:17:07;7.90;75.40
30304;DHT22;17112;48.636;10.152;2023-11-18T01:19:34;7.90;75.40
30304;DHT22;17112;48.636;10.152;2023-11-18T01:22:01;7.90;75.30
30304;DHT22;17112;48.636;10.152;2023-11-18T01:24:31;7.80;75.10
30304;DHT22;17112;48.636;10.152;2023-11-18T01:26:57;7.80;75.20
30304;DHT22;17112;48.636;10.152;2023-11-18T01:29:24;7.80;75.30
30304;DHT22;17112;48.636;10.152;2023-11-18T01:31:50;7.80;75.40
30304;DHT22;17112;48.636;10.152;2023-11-18T01:34:16;7.70;75.40
30304;DHT22;17112;48.636;10.152;2023-11-18T01:36:42;7.70;75.40
30304;DHT22;17112;48.636;10.152;2023-11-18T01:39:09;7.70;75.50
30304;DHT22;17112;48.636;10.152;2023-11-18T01:41:35;7.70;75.50
30304;DHT22;17112;48.636;10.152;2023-11-18T01:44:01;7.70;75.50
30304;DHT22;17112;48.636;10.152;2023-11-18T01:46:27;7.70;75.50
30304;DHT22;17112;48.636;10.152;2023-11-18T01:48:55;7.70;75.60
30304;DHT22;17112;48.636;10.152;2023-11-18T01:51:22;7.70;75.70
30304;DHT22;17112;48.636;10.152;2023-11-18T01:53:49;7.70;75.60
30304;DHT22;17112;48.636;10.152;2023-11-18T01:56:15;7.70;75.80
30304;DHT22;17112;48.636;10.152;2023-11-18T01:58:41;7.60;75.80
30304;DHT22;17112;48.636;10.152;2023-11-18T02:01:07;7.70;76.00
30304;DHT22;17112;48.636;10.152;2023-11-18T02:03:36;7.70;76.20
30304;DHT22;17112;48.636;10.152;2023-11-18T02:06:04;7.70;76.30
30304;DHT22;17112;48.636;10.152;2023-11-18T02:08:32;7.70;76.40
30304;DHT22;17112;48.636;10.152;2023-11-18T02:11:10;7.70;76.40
30304;DHT22;17112;48.636;10.152;2023-11-18T02:13:40;7.70;76.40
30304;DHT22;17112;48.636;10.152;2023-11-18T02:16:10;7.80;76.50
30304;DHT22;17112;48.636;10.152;2023-11-18T02:18:38;7.80;76.50
30304;DHT22;17112;48.636;10.152;2023-11-18T02:21:07;7.80;76.50
30304;DHT22;17112;48.636;10.152;2023-11-18T02:23:34;7.80;76.50
30304;DHT22;17112;48.636;10.152;2023-11-18T02:26:01;7.90;76.60
30304;DHT22;17112;48.636;10.152;2023-11-18T02:28:27;7.90;76.60
30304;DHT22;17112;48.636;10.152;2023-11-18T02:30:58;7.90;76.50
30304;DHT22;17112;48.636;10.152;2023-11-18T02:33:35;7.90;76.60
30304;DHT22;17112;48.636;10.152;2023-11-18T02:36:23;7.90;77.30
30304;DHT22;17112;48.636;10.152;2023-11-18T02:38:50;8.00;76.60
30304;DHT22;17112;48.636;10.152;2023-11-18T02:41:16;8.00;76.20
30304;DHT22;17112;48.636;10.152;2023-11-18T02:43:44;8.00;76.30
30304;DHT22;17112;48.636;10.152;2023-11-18T02:46:11;8.00;76.40
30304;DHT22;17112;48.636;10.152;2023-11-18T02:48:40;8.10;76.60
30304;DHT22;17112;48.636;10.152;2023-11-18T02:51:07;8.10;76.60
30304;DHT22;17112;48.636;10.152;2023-11-18T02:53:34;8.40;76.70
30304;DHT22;17112;48.636;10.152;2023-11-18T02:56:00;8.10;76.20
30304;DHT22;17112;48.636;10.152;2023-11-18T02:58:29;8.10;76.20
30304;DHT22;17112;48.636;10.152;2023-11-18T03:00:55;8.20;76.30
30304;DHT22;17112;48.636;10.152;2023-11-18T03:03:21;8.20;76.30
30304;DHT22;17112;48.636;10.152;2023-11-18T03:05:46;8.20;76.30
30304;DHT22;17112;48.636;10.152;2023-11-18T03:08:15;8.20;76.10
30304;DHT22;17112;48.636;10.152;2023-11-18T03:10:41;8.20;76.10
30304;DHT22;17112;48.636;10.152;2023-11-18T03:13:09;8.20;75.90
30304;DHT22;17112;48.636;10.152;2023-11-18T03:15:35;8.20;75.90
30304;DHT22;17112;48.636;10.152;2023-11-18T03:18:01;8.20;76.00
30304;DHT22;17112;48.636;10.152;2023-11-18T03:20:27;8.20;75.90
30304;DHT22;17112;48.636;10.152;2023-11-18T03:22:54;8.20;75.80
30304;DHT22;17112;48.636;10.152;2023-11-18T03:25:20;8.20;75.80
30304;DHT22;17112;48.636;10.152;2023-11-18T03:27:47;8.30;75.80
30304;DHT22;17112;48.636;10.152;2023-11-18T03:30:13;8.30;75.60
30304;DHT22;17112;48.636;10.152;2023-11-18T03:32:40;8.30;75.60
30304;DHT22;17112;48.636;10.152;2023-11-18T03:35:07;8.30;75.60
30304;DHT22;17112;48.636;10.152;2023-11-18T03:37:43;8.30;75.60
30304;DHT22;17112;48.636;10.152;2023-11-18T03:40:13;8.30;75.60
30304;DHT22;17112;48.636;10.152;2023-11-18T03:42:42;8.30;75.40
30304;DHT22;17112;48.636;10.152;2023-11-18T03:45:08;8.30;75.40
30304;DHT22;17112;48.636;10.152;2023-11-18T03:47:35;8.30;75.40
30304;DHT22;17112;48.636;10.152;2023-11-18T03:50:01;8.20;75.40
30304;DHT22;17112;48.636;10.152;2023-11-18T03:52:26;8.20;75.40
30304;DHT22;17112;48.636;10.152;2023-11-18T03:54:53;8.20;75.40
30304;DHT22;17112;48.636;10.152;2023-11-18T03:57:20;8.20;75.30
30304;DHT22;17112;48.636;10.152;2023-11-18T03:59:46;8.20;75.30
30304;DHT22;17112;48.636;10.152;2023-11-18T04:02:12;8.10;75.20
30304;DHT22;17112;48.636;10.152;2023-11-18T04:04:38;8.10;75.30
30304;DHT22;17112;48.636;10.152;2023-11-18T04:07:04;8.10;75.30
30304;DHT22;17112;48.636;10.152;2023-11-18T04:09:30;8.00;75.30
30304;DHT22;17112;48.636;10.152;2023-11-18T04:11:56;8.00;75.30
30304;DHT22;17112;48.636;10.152;2023-11-18T04:14:22;8.00;75.30
30304;DHT22;17112;48.636;10.152;2023-11-18T04:16:48;7.90;75.40
30304;DHT22;17112;48.636;10.152;2023-11-18T04:19:15;7.90;75.60
30304;DHT22;17112;48.636;10.152;2023-11-18T04:21:41;7.80;75.70
30304;DHT22;17112;48.636;10.152;2023-11-18T04:24:06;7.80;75.90
30304;DHT22;17112;48.636;10.152;2023-11-18T04:26:32;7.80;75.90
30304;DHT22;17112;48.636;10.152;2023-11-18T04:28:59;7.80;75.90
30304;DHT22;17112;48.636;10.152;2023-11-18T04:31:25;7.80;75.80
30304;DHT22;17112;48.636;10.152;2023-11-18T04:33:50;7.80;76.30
30304;DHT22;17112;48.636;10.152;2023-11-18T04:36:16;7.80;75.50
30304;DHT22;17112;48.636;10.152;2023-11-18T04:38:42;7.70;75.50
30304;DHT22;17112;48.636;10.152;2023-11-18T04:41:09;7.70;75.50
30304;DHT22;17112;48.636;10.152;2023-11-18T04:43:35;7.70;75.60
30304;DHT22;17112;48.636;10.152;2023-11-18T04:46:00;7.60;75.70
30304;DHT22;17112;48.636;10.152;2023-11-18T04:48:26;7.60;75.90
30304;DHT22;17112;48.636;10.152;2023-11-18T04:50:52;7.60;75.90
30304;DHT22;17112;48.636;10.152;2023-11-18T04:53:17;7.60;75.90
30304;DHT22;17112;48.636;10.152;2023-11-18T04:55:43;7.60;75.70
30304;DHT22;17112;48.636;10.152;2023-11-18T04:58:09;7.60;75.60
30304;DHT22;17112;48.636;10.152;2023-11-18T05:00:36;7.50;75.40
30304;DHT22;17112;48.636;10.152;2023-11-18T05:03:03;7.50;75.40
30304;DHT22;17112;48.636;10.152;2023-11-18T05:05:30;7.50;75.40
30304;DHT22;17112;48.636;10.152;2023-11-18T05:07:55;7.50;75.40
30304;DHT22;17112;48.636;10.152;2023-11-18T05:10:22;7.40;75.30
30304;DHT22;17112;48.636;10.152;2023-11-18T05:12:47;7.40;75.30
30304;DHT22;17112;48.636;10.152;2023-11-18T05:15:21;7.40;75.40
30304;DHT22;17112;48.636;10.152;2023-11-18T05:17:53;7.40;75.50
30304;DHT22;17112;48.636;10.152;2023-11-18T05:20:19;7.30;75.50
30304;DHT22;17112;48.636;10.152;2023-11-18T05:22:45;7.30;75.50
30304;DHT22;17112;48.636;10.152;2023-11-18T05:25:11;7.30;75.60
30304;DHT22;17112;48.636;10.152;2023-11-18T05:27:38;7.30;75.60
30304;DHT22;17112;48.636;10.152;2023-11-18T05:30:06;7.30;75.80
30304;DHT22;17112;48.636;10.152;2023-11-18T05:32:32;7.30;75.80
30304;DHT22;17112;48.636;10.152;2023-11-18T05:34:59;7.30;75.90
30304;DHT22;17112;48.636;10.152;2023-11-18T05:37:25;7.30;75.90
30304;DHT22;17112;48.636;10.152;2023-11-18T05:39:51;7.30;75.90
30304;DHT22;17112;48.636;10.152;2023-11-18T05:42:27;7.20;76.10
30304;DHT22;17112;48.636;10.152;2023-11-18T05:44:53;7.20;75.80
30304;DHT22;17112;48.636;10.152;2023-11-18T05:47:25;7.20;75.80
30304;DHT22;17112;48.636;10.152;2023-11-18T05:49:52;7.20;75.90
30304;DHT22;17112;48.636;10.152;2023-11-18T05:52:18;7.20;76.00
30304;DHT22;17112;48.636;10.152;2023-11-18T05:54:46;7.20;76.10
30304;DHT22;17112;48.636;10.152;2023-11-18T05:57:14;7.20;76.30
30304;DHT22;17112;48.636;10.152;2023-11-18T05:59:40;7.20;76.40
30304;DHT22;17112;48.636;10.152;2023-11-18T06:02:06;7.20;76.50
30304;DHT22;17112;48.636;10.152;2023-11-18T06:04:33;7.30;76.60
30304;DHT22;17112;48.636;10.152;2023-11-18T06:06:59;7.30;76.70
30304;DHT22;17112;48.636;10.152;2023-11-18T06:09:24;7.30;76.70
30304;DHT22;17112;48.636;10.152;2023-11-18T06:11:51;7.30;76.50
30304;DHT22;17112;48.636;10.152;2023-11-18T06:14:19;7.30;76.00
30304;DHT22;17112;48.636;10.152;2023-11-18T06:16:45;7.30;75.80
30304;DHT22;17112;48.636;10.152;2023-11-18T06:19:13;7.30;76.60
30304;DHT22;17112;48.636;10.152;2023-11-18T06:21:40;7.20;76.10
30304;DHT22;17112;48.636;10.152;2023-11-18T06:24:06;7.20;77.10
30304;DHT22;17112;48.636;10.152;2023-11-18T06:26:32;7.20;76.60
30304;DHT22;17112;48.636;10.152;2023-11-18T06:29:01;7.20;76.70
30304;DHT22;17112;48.636;10.152;2023-11-18T06:31:27;7.20;76.70
30304;DHT22;17112;48.636;10.152;2023-11-18T06:33:55;7.20;76.70
30304;DHT22;17112;48.636;10.152;2023-11-18T06:36:21;7.30;76.80
30304;DHT22;17112;48.636;10.152;2023-11-18T06:38:51;7.30;76.70
30304;DHT22;17112;48.636;10.152;2023-11-18T06:41:18;7.30;76.70
30304;DHT22;17112;48.636;10.152;2023-11-18T06:43:45;7.30;76.60
30304;DHT22;17112;48.636;10.152;2023-11-18T06:46:18;7.30;76.60
30304;DHT22;17112;48.636;10.152;2023-11-18T06:48:47;7.30;76.50
30304;DHT22;17112;48.636;10.152;2023-11-18T06:51:13;7.30;76.40
30304;DHT22;17112;48.636;10.152;2023-11-18T06:53:41;7.40;76.50
30304;DHT22;17112;48.636;10.152;2023-11-18T06:56:07;7.30;76.40
30304;DHT22;17112;48.636;10.152;2023-11-18T06:58:32;7.30;76.40
30304;DHT22;17112;48.636;10.152;2023-11-18T07:00:59;7.40;76.50
30304;DHT22;17112;48.636;10.152;2023-11-18T07:03:25;7.40;76.50
30304;DHT22;17112;48.636;10.152;2023-11-18T07:05:51;7.40;76.50
30304;DHT22;17112;48.636;10.152;2023-11-18T07:08:17;7.40;76.60
30304;DHT22;17112;48.636;10.152;2023-11-18T07:10:42;7.40;76.60
30304;DHT22;17112;48.636;10.152;2023-11-18T07:13:08;7.40;76.60
30304;DHT22;17112;48.636;10.152;2023-11-18T07:15:34;7.40;76.50
30304;DHT22;17112;48.636;10.152;2023-11-18T07:18:01;7.50;76.70
30304;DHT22;17112;48.636;10.152;2023-11-18T07:20:27;7.50;76.70
30304;DHT22;17112;48.636;10.152;2023-11-18T07:22:53;7.50;76.60
30304;DHT22;17112;48.636;10.152;2023-11-18T07:25:19;7.60;76.60
30304;DHT22;17112;48.636;10.152;2023-11-18T07:27:46;7.60;76.50
30304;DHT22;17112;48.636;10.152;2023-11-18T07:30:11;7.60;76.50
30304;DHT22;17112;48.636;10.152;2023-11-18T07:32:37;7.60;76.50
30304;DHT22;17112;48.636;10.152;2023-11-18T07:35:05;7.70;76.40
30304;DHT22;17112;48.636;10.152;2023-11-18T07:37:35;7.70;76.40
30304;DHT22;17112;48.636;10.152;2023-11-18T07:40:01;7.70;76.30
30304;DHT22;17112;48.636;10.152;2023-11-18T07:42:27;7.70;76.10
30304;DHT22;17112;48.636;10.152;2023-11-18T07:44:52;7.70;75.90
30304;DHT22;17112;48.636;10.152;2023-11-18T07:47:18;7.70;75.80
30304;DHT22;17112;48.636;10.152;2023-11-18T07:49:45;7.70;75.60
30304;DHT22;17112;48.636;10.152;2023-11-18T07:52:11;7.70;75.60
30304;DHT22;17112;48.636;10.152;2023-11-18T07:54:37;7.70;75.50
30304;DHT22;17112;48.636;10.152;2023-11-18T07:57:03;7.70;75.30
30304;DHT22;17112;48.636;10.152;2023-11-18T07:59:33;7.60;75.30
30304;DHT22;17112;48.636;10.152;2023-11-18T08:01:58;7.60;75.50
30304;DHT22;17112;48.636;10.152;2023-11-18T08:04:26;7.50;75.60
30304;DHT22;17112;48.636;10.152;2023-11-18T08:06:52;7.50;75.90
30304;DHT22;17112;48.636;10.152;2023-11-18T08:09:19;7.50;76.00
30304;DHT22;17112;48.636;10.152;2023-11-18T08:11:48;7.50;76.10
30304;DHT22;17112;48.636;10.152;2023-11-18T08:14:15;7.60;76.30
30304;DHT22;17112;48.636;10.152;2023-11-18T08:16:40;7.70;76.30
30304;DHT22;17112;48.636;10.152;2023-11-18T08:19:06;7.70;76.40
30304;DHT22;17112;48.636;10.152;2023-11-18T08:21:34;7.70;76.60
30304;DHT22;17112;48.636;10.152;2023-11-18T08:24:00;7.90;76.70
30304;DHT22;17112;48.636;10.152;2023-11-18T08:26:26;8.00;76.60
30304;DHT22;17112;48.636;10.152;2023-11-18T08:28:51;8.10;76.40
30304;DHT22;17112;48.636;10.152;2023-11-18T08:31:17;8.20;76.40
30304;DHT22;17112;48.636;10.152;2023-11-18T08:33:43;8.30;76.40
30304;DHT22;17112;48.636;10.152;2023-11-18T08:36:11;8.40;76.30
30304;DHT22;17112;48.636;10.152;2023-11-18T08:38:38;8.50;75.90
30304;DHT22;17112;48.636;10.152;2023-11-18T08:41:04;8.60;75.70
30304;DHT22;17112;48.636;10.152;2023-11-18T08:43:34;8.70;75.40
30304;DHT22;17112;48.636;10.152;2023-11-18T08:46:01;8.80;75.20
30304;DHT22;17112;48.636;10.152;2023-11-18T08:48:27;8.90;75.30
30304;DHT22;17112;48.636;10.152;2023-11-18T08:50:53;9.00;75.20
30304;DHT22;17112;48.636;10.152;2023-11-18T08:53:19;9.00;75.10
30304;DHT22;17112;48.636;10.152;2023-11-18T08:55:51;9.10;75.30
30304;DHT22;17112;48.636;10.152;2023-11-18T08:58:19;9.20;75.10
30304;DHT22;17112;48.636;10.152;2023-11-18T09:00:52;9.20;74.90
30304;DHT22;17112;48.636;10.152;2023-11-18T09:03:19;9.30;74.60
30304;DHT22;17112;48.636;10.152;2023-11-18T09:05:55;9.40;74.50
30304;DHT22;17112;48.636;10.152;2023-11-18T09:08:28;9.50;74.20
30304;DHT22;17112;48.636;10.152;2023-11-18T09:11:01;9.50;74.00
30304;DHT22;17112;48.636;10.152;2023-11-18T09:13:27;9.60;74.00
30304;DHT22;17112;48.636;10.152;2023-11-18T09:16:05;9.60;73.70
30304;DHT22;17112;48.636;10.152;2023-11-18T09:18:35;9.60;73.00
30304;DHT22;17112;48.636;10.152;2023-11-18T09:21:01;9.70;73.10
30304;DHT22;17112;48.636;10.152;2023-11-18T09:23:30;9.70;73.10
30304;DHT22;17112;48.636;10.152;2023-11-18T09:25:57;9.70;73.10
30304;DHT22;17112;48.636;10.152;2023-11-18T09:28:24;9.70;73.10
30304;DHT22;17112;48.636;10.152;2023-11-18T09:30:51;9.70;73.10
30304;DHT22;17112;48.636;10.152;2023-11-18T09:33:23;9.70;73.10
30304;DHT22;17112;48.636;10.152;2023-11-18T09:36:03;9.70;72.90
30304;DHT22;17112;48.636;10.152;2023-11-18T09:38:34;9.70;72.90
30304;DHT22;17112;48.636;10.152;2023-11-18T09:41:06;9.70;72.90
30304;DHT22;17112;48.636;10.152;2023-11-18T09:43:33;9.80;72.80
30304;DHT22;17112;48.636;10.152;2023-11-18T09:46:08;9.80;72.60
30304;DHT22;17112;48.636;10.152;2023-11-18T09:48:47;9.80;72.60
30304;DHT22;17112;48.636;10.152;2023-11-18T09:51:23;9.80;72.70
30304;DHT22;17112;48.636;10.152;2023-11-18T09:54:00;9.80;72.40
30304;DHT22;17112;48.636;10.152;2023-11-18T09:59:32;9.90;72.10
30304;DHT22;17112;48.636;10.152;2023-11-18T10:02:02;9.90;72.30
30304;DHT22;17112;48.636;10.152;2023-11-18T10:04:30;9.90;72.30
30304;DHT22;17112;48.636;10.152;2023-11-18T10:06:57;9.90;72.00
30304;DHT22;17112;48.636;10.152;2023-11-18T10:09:24;9.90;72.30
30304;DHT22;17112;48.636;10.152;2023-11-18T10:12:08;9.90;72.40
30304;DHT22;17112;48.636;10.152;2023-11-18T10:14:35;9.90;72.50
30304;DHT22;17112;48.636;10.152;2023-11-18T10:17:07;9.90;72.30
30304;DHT22;17112;48.636;10.152;2023-11-18T10:19:58;9.90;72.20
30304;DHT22;17112;48.636;10.152;2023-11-18T10:22:38;9.90;71.90
30304;DHT22;17112;48.636;10.152;2023-11-18T10:25:04;10.00;72.40
30304;DHT22;17112;48.636;10.152;2023-11-18T10:27:31;10.00;72.40
30304;DHT22;17112;48.636;10.152;2023-11-18T10:30:04;10.00;72.40
30304;DHT22;17112;48.636;10.152;2023-11-18T10:32:30;10.00;72.50
30304;DHT22;17112;48.636;10.152;2023-11-18T10:35:01;10.00;72.60
30304;DHT22;17112;48.636;10.152;2023-11-18T10:37:27;10.10;72.70
30304;DHT22;17112;48.636;10.152;2023-11-18T10:39:56;10.20;72.70
30304;DHT22;17112;48.636;10.152;2023-11-18T10:42:26;10.20;72.40
30304;DHT22;17112;48.636;10.152;2023-11-18T10:44:58;10.30;72.40
30304;DHT22;17112;48.636;10.152;2023-11-18T10:47:28;10.30;72.00
30304;DHT22;17112;48.636;10.152;2023-11-18T10:49:57;10.40;72.10
30304;DHT22;17112;48.636;10.152;2023-11-18T10:52:26;10.40;71.80
30304;DHT22;17112;48.636;10.152;2023-11-18T10:54:56;10.50;71.80
30304;DHT22;17112;48.636;10.152;2023-11-18T10:57:22;10.50;71.30
30304;DHT22;17112;48.636;10.152;2023-11-18T11:00:04;10.40;71.40
30304;DHT22;17112;48.636;10.152;2023-11-18T11:02:39;10.40;70.90
30304;DHT22;17112;48.636;10.152;2023-11-18T11:05:10;10.50;71.40
30304;DHT22;17112;48.636;10.152;2023-11-18T11:07:42;10.40;71.30
30304;DHT22;17112;48.636;10.152;2023-11-18T11:10:08;10.40;71.00
30304;DHT22;17112;48.636;10.152;2023-11-18T11:12:43;10.40;71.10
30304;DHT22;17112;48.636;10.152;2023-11-18T11:15:28;10.40;70.90
30304;DHT22;17112;48.636;10.152;2023-11-18T11:17:57;10.40;70.80
30304;DHT22;17112;48.636;10.152;2023-11-18T11:20:37;10.40;70.80
30304;DHT22;17112;48.636;10.152;2023-11-18T11:34:27;10.30;70.50
30304;DHT22;17112;48.636;10.152;2023-11-18T11:36:56;10.30;70.70
30304;DHT22;17112;48.636;10.152;2023-11-18T11:39:22;10.40;70.90
30304;DHT22;17112;48.636;10.152;2023-11-18T11:41:54;10.40;71.20
30304;DHT22;17112;48.636;10.152;2023-11-18T11:44:25;10.40;71.00
30304;DHT22;17112;48.636;10.152;2023-11-18T11:46:56;10.40;71.00
30304;DHT22;17112;48.636;10.152;2023-11-18T11:49:23;10.50;70.80
30304;DHT22;17112;48.636;10.152;2023-11-18T11:52:01;10.50;70.50
30304;DHT22;17112;48.636;10.152;2023-11-18T11:54:34;10.60;70.10
30304;DHT22;17112;48.636;10.152;2023-11-18T11:57:02;10.60;70.60
30304;DHT22;17112;48.636;10.152;2023-11-18T12:02:22;10.60;70.00
30304;DHT22;17112;48.636;10.152;2023-11-18T12:04:55;10.60;70.20
30304;DHT22;17112;48.636;10.152;2023-11-18T12:07:25;10.60;70.00
30304;DHT22;17112;48.636;10.152;2023-11-18T12:09:56;10.60;69.90
30304;DHT22;17112;48.636;10.152;2023-11-18T12:12:24;10.60;69.70
30304;DHT22;17112;48.636;10.152;2023-11-18T12:14:56;10.60;69.90
30304;DHT22;17112;48.636;10.152;2023-11-18T12:17:24;10.60;69.90
30304;DHT22;17112;48.636;10.152;2023-11-18T12:19:53;10.60;70.20
30304;DHT22;17112;48.636;10.152;2023-11-18T12:22:24;10.60;70.30
30304;DHT22;17112;48.636;10.152;2023-11-18T12:27:43;10.60;69.80
30304;DHT22;17112;48.636;10.152;2023-11-18T12:33:10;10.60;69.30
30304;DHT22;17112;48.636;10.152;2023-11-18T12:41:02;10.40;69.50
30304;DHT22;17112;48.636;10.152;2023-11-18T12:43:49;10.30;69.90
30304;DHT22;17112;48.636;10.152;2023-11-18T12:49:14;10.30;68.80
30304;DHT22;17112;48.636;10.152;2023-11-18T12:51:53;10.20;69.50
30304;DHT22;17112;48.636;10.152;2023-11-18T12:54:20;10.20;69.80
30304;DHT22;17112;48.636;10.152;2023-11-18T12:56:47;10.20;69.90
30304;DHT22;17112;48.636;10.152;2023-11-18T12:59:19;10.20;69.60
30304;DHT22;17112;48.636;10.152;2023-11-18T13:01:53;10.20;69.40
30304;DHT22;17112;48.636;10.152;2023-11-18T13:04:30;10.20;69.30
30304;DHT22;17112;48.636;10.152;2023-11-18T13:06:56;10.10;69.70
30304;DHT22;17112;48.636;10.152;2023-11-18T13:09:23;10.10;69.80
30304;DHT22;17112;48.636;10.152;2023-11-18T13:12:02;10.10;69.40
30304;DHT22;17112;48.636;10.152;2023-11-18T13:14:32;10.10;69.40
30304;DHT22;17112;48.636;10.152;2023-11-18T13:17:05;10.00;69.30
30304;DHT22;17112;48.636;10.152;2023-11-18T13:19:34;10.10;69.20
30304;DHT22;17112;48.636;10.152;2023-11-18T13:22:07;10.00;69.60
30304;DHT22;17112;48.636;10.152;2023-11-18T13:24:40;9.90;69.70
30304;DHT22;17112;48.636;10.152;2023-11-18T13:27:10;9.90;70.00
30304;DHT22;17112;48.636;10.152;2023-11-18T13:29:37;10.00;70.10
30304;DHT22;17112;48.636;10.152;2023-11-18T13:32:05;9.90;70.00
30304;DHT22;17112;48.636;10.152;2023-11-18T13:34:34;10.00;70.20
30304;DHT22;17112;48.636;10.152;2023-11-18T13:37:04;10.00;70.20
30304;DHT22;17112;48.636;10.152;2023-11-18T13:39:32;9.90;70.10
30304;DHT22;17112;48.636;10.152;2023-11-18T13:41:59;10.00;70.20
30304;DHT22;17112;48.636;10.152;2023-11-18T13:44:44;10.00;70.20
30304;DHT22;17112;48.636;10.152;2023-11-18T13:47:11;9.90;70.10
30304;DHT22;17112;48.636;10.152;2023-11-18T13:49:38;10.00;70.20
30304;DHT22;17112;48.636;10.152;2023-11-18T13:52:07;10.00;70.20
30304;DHT22;17112;48.636;10.152;2023-11-18T13:54:38;10.00;70.30
30304;DHT22;17112;48.636;10.152;2023-11-18T13:57:06;10.00;70.10
30304;DHT22;17112;48.636;10.152;2023-11-18T13:59:32;10.00;70.00
30304;DHT22;17112;48.636;10.152;2023-11-18T14:01:59;9.90;69.90
30304;DHT22;17112;48.636;10.152;2023-11-18T14:04:28;9.90;69.90
30304;DHT22;17112;48.636;10.152;2023-11-18T14:06:58;9.90;70.00
30304;DHT22;17112;48.636;10.152;2023-11-18T14:09:25;9.90;69.90
30304;DHT22;17112;48.636;10.152;2023-11-18T14:11:57;9.90;70.10
30304;DHT22;17112;48.636;10.152;2023-11-18T14:14:25;9.90;70.10
30304;DHT22;17112;48.636;10.152;2023-11-18T14:16:52;9.80;70.10
30304;DHT22;17112;48.636;10.152;2023-11-18T14:19:19;9.80;70.20
30304;DHT22;17112;48.636;10.152;2023-11-18T14:21:45;9.80;70.30
30304;DHT22;17112;48.636;10.152;2023-11-18T14:24:11;9.80;70.40
30304;DHT22;17112;48.636;10.152;2023-11-18T14:26:40;9.80;71.20
30304;DHT22;17112;48.636;10.152;2023-11-18T14:29:07;9.80;70.50
30304;DHT22;17112;48.636;10.152;2023-11-18T14:31:35;9.80;70.70
30304;DHT22;17112;48.636;10.152;2023-11-18T14:34:01;9.80;70.80
30304;DHT22;17112;48.636;10.152;2023-11-18T14:36:26;9.80;70.80
30304;DHT22;17112;48.636;10.152;2023-11-18T14:38:52;9.80;70.80
30304;DHT22;17112;48.636;10.152;2023-11-18T14:41:18;9.80;70.90
30304;DHT22;17112;48.636;10.152;2023-11-18T14:43:46;9.80;70.90
30304;DHT22;17112;48.636;10.152;2023-11-18T14:46:11;9.80;70.90
30304;DHT22;17112;48.636;10.152;2023-11-18T14:48:38;9.80;70.80
30304;DHT22;17112;48.636;10.152;2023-11-18T14:51:04;9.70;70.80
30304;DHT22;17112;48.636;10.152;2023-11-18T14:53:30;9.80;71.00
30304;DHT22;17112;48.636;10.152;2023-11-18T14:55:56;9.70;70.90
30304;DHT22;17112;48.636;10.152;2023-11-18T14:58:23;9.70;71.00
30304;DHT22;17112;48.636;10.152;2023-11-18T15:00:49;9.70;71.00
30304;DHT22;17112;48.636;10.152;2023-11-18T15:03:15;9.70;71.10
30304;DHT22;17112;48.636;10.152;2023-11-18T15:05:42;9.70;71.30
30304;DHT22;17112;48.636;10.152;2023-11-18T15:08:09;9.70;71.30
30304;DHT22;17112;48.636;10.152;2023-11-18T15:10:35;9.70;71.40
30304;DHT22;17112;48.636;10.152;2023-11-18T15:13:03;9.70;71.30
30304;DHT22;17112;48.636;10.152;2023-11-18T15:15:30;9.60;71.30
30304;DHT22;17112;48.636;10.152;2023-11-18T15:18:04;9.60;71.30
30304;DHT22;17112;48.636;10.152;2023-11-18T15:20:31;9.60;71.40
30304;DHT22;17112;48.636;10.152;2023-11-18T15:22:56;9.60;71.40
30304;DHT22;17112;48.636;10.152;2023-11-18T15:25:22;9.60;71.60
30304;DHT22;17112;48.636;10.152;2023-11-18T15:27:48;9.60;71.60
30304;DHT22;17112;48.636;10.152;2023-11-18T15:30:16;9.60;71.80
30304;DHT22;17112;48.636;10.152;2023-11-18T15:32:43;9.60;71.90
30304;DHT22;17112;48.636;10.152;2023-11-18T15:35:09;9.60;71.90
30304;DHT22;17112;48.636;10.152;2023-11-18T15:37:42;9.50;71.90
30304;DHT22;17112;48.636;10.152;2023-11-18T15:40:11;9.60;72.00
30304;DHT22;17112;48.636;10.152;2023-11-18T15:42:42;9.60;72.00
30304;DHT22;17112;48.636;10.152;2023-11-18T15:45:09;9.60;72.10
30304;DHT22;17112;48.636;10.152;2023-11-18T15:47:40;9.60;72.10
30304;DHT22;17112;48.636;10.152;2023-11-18T15:50:09;9.60;72.20
30304;DHT22;17112;48.636;10.152;2023-11-18T15:52:47;9.50;72.10
30304;DHT22;17112;48.636;10.152;2023-11-18T15:55:14;9.50;72.10
30304;DHT22;17112;48.636;10.152;2023-11-18T15:57:44;9.50;72.20
30304;DHT22;17112;48.636;10.152;2023-11-18T16:00:13;9.50;72.30
30304;DHT22;17112;48.636;10.152;2023-11-18T16:02:49;9.50;72.30
30304;DHT22;17112;48.636;10.152;2023-11-18T16:05:16;9.50;72.40